Date,TemperatureHighF,TemperatureAvgF,TemperatureLowF,DewpointHighF,DewpointAvgF,DewpointLowF,HumidityHigh,HumidityAvg,HumidityLow,PressureMaxIn,PressureMinIn,WindSpeedMaxMPH,WindSpeedAvgMPH,GustSpeedMaxMPH,PrecipitationSumIn
2014-1-1,48.4,36.8,28.9,30.0,27.3,24.0,91,71,39,30.41,30.13,7,1,9,0.00
2014-1-2,47.8,40.4,33.3,42.0,37.0,30.0,97,88,73,30.13,29.58,8,1,13,0.42
2014-1-3,38.5,26.6,19.5,35.0,13.8,7.0,88,60,38,30.46,29.66,17,4,27,0.00
2014-1-4,35.0,27.4,16.6,24.0,16.0,13.0,87,65,42,30.51,30.28,7,1,10,0.00
2014-1-5,46.6,39.1,33.0,43.0,36.0,26.0,97,88,72,30.28,29.76,5,1,7,0.01
2014-1-6,54.1,38.1,14.1,54.0,30.4,-1.0,98,76,45,30.16,29.60,12,5,22,0.83
2014-1-7,21.9,14.6,7.3,9.0,-0.5,-6.0,77,53,36,30.49,30.16,11,3,17,0.00
2014-1-8,39.8,24.1,12.1,19.0,12.5,9.0,87,64,32,30.60,30.47,6,1,10,0.00
2014-1-9,49.6,33.3,23.1,27.0,20.5,13.0,88,64,23,30.57,30.46,6,1,9,0.00
2014-1-10,41.3,38.3,35.5,38.0,34.7,27.0,97,87,59,30.45,30.09,5,1,10,0.82
2014-1-11,63.3,49.8,38.2,63.0,49.6,38.0,99,99,97,30.08,29.56,13,3,23,1.40
2014-1-12,54.2,44.8,35.2,49.0,36.2,31.0,99,73,45,30.14,29.66,10,3,16,0.00
2014-1-13,58.9,44.1,32.4,43.0,36.5,30.0,94,77,48,30.13,29.92,9,2,19,0.01
2014-1-14,50.5,45.3,34.1,48.0,43.1,33.0,97,92,82,29.94,29.75,5,1,13,0.45
2014-1-15,53.9,40.5,31.3,44.0,35.6,30.0,98,84,60,29.94,29.80,8,2,14,0.06
2014-1-16,41.0,33.8,28.0,33.0,27.0,21.0,95,78,46,30.01,29.90,6,2,12,0.06
2014-1-17,51.2,37.6,26.1,34.0,28.5,23.0,91,72,49,29.99,29.82,14,3,17,0.00
2014-1-18,41.0,30.5,24.7,30.0,18.9,12.0,81,64,42,30.02,29.83,11,3,20,0.00
2014-1-19,49.9,37.7,28.0,30.0,24.8,20.0,82,61,45,29.97,29.88,12,3,20,0.00
2014-1-20,60.2,43.4,32.0,30.0,27.8,25.0,78,58,28,29.88,29.74,14,3,19,0.00
2014-1-21,46.0,35.4,26.3,36.0,29.4,23.0,92,79,62,29.82,29.52,20,3,20,0.00
2014-1-22,27.0,22.6,17.4,24.0,12.5,3.0,92,67,42,30.09,29.81,13,3,19,0.01
2014-1-23,34.1,24.1,14.4,16.0,11.8,4.0,85,61,44,30.44,30.08,14,2,21,0.03
2014-1-24,24.2,16.3,8.9,8.0,0.8,-4.0,76,52,30,30.61,30.24,13,3,17,0.00
2014-1-25,38.5,27.3,15.2,18.0,10.1,3.0,62,49,35,30.23,29.63,14,5,27,0.01
2014-1-26,50.5,35.6,20.9,30.0,19.8,13.0,85,56,27,29.95,29.79,10,2,19,0.00
2014-1-27,60.9,45.1,29.8,39.0,29.7,4.0,73,56,32,30.09,29.75,9,4,20,0.00
2014-1-28,29.4,23.2,17.7,17.0,7.4,-2.0,87,55,32,30.31,30.09,15,4,19,0.00
2014-1-29,25.7,19.2,10.8,14.0,8.6,0.0,87,66,34,30.36,30.16,9,2,14,0.01
2014-1-30,33.9,18.7,4.6,12.0,6.2,1.0,95,62,29,30.43,30.23,8,1,10,0.04
2014-1-31,51.5,30.3,13.9,23.0,16.2,9.0,86,61,27,30.22,30.12,7,1,11,0.03